createdAt,value
2018-09-30T00:00:26.090Z,3.00
2018-09-30T00:02:54.398Z,2.43
2018-09-30T00:05:22.629Z,3.30
2018-09-30T00:07:51.099Z,2.87
2018-09-30T00:10:19.316Z,2.90
2018-09-30T00:12:47.575Z,2.77
2018-09-30T00:15:15.724Z,2.60
2018-09-30T00:17:43.880Z,2.87
2018-09-30T00:20:12.067Z,3.00
2018-09-30T00:22:40.236Z,2.60
2018-09-30T00:25:13.823Z,3.37
2018-09-30T00:27:42.004Z,2.60
2018-09-30T00:30:10.223Z,2.60
2018-09-30T00:32:39.263Z,2.67
2018-09-30T00:35:07.461Z,2.40
2018-09-30T00:37:35.640Z,2.50
2018-09-30T00:40:03.834Z,3.20
2018-09-30T00:42:32.008Z,2.73
2018-09-30T00:45:00.292Z,3.00
2018-09-30T00:47:28.603Z,3.20
2018-09-30T00:49:56.847Z,2.90
2018-09-30T00:52:25.003Z,2.87
2018-09-30T00:54:53.183Z,2.40
2018-09-30T00:57:21.447Z,3.07
2018-09-30T00:59:49.679Z,2.70
2018-09-30T01:02:17.919Z,2.87
2018-09-30T01:04:46.103Z,2.77
2018-09-30T01:07:14.308Z,3.30
2018-09-30T01:09:42.558Z,3.23
2018-09-30T01:12:10.743Z,2.90
2018-09-30T01:14:38.922Z,2.53
2018-09-30T01:17:07.083Z,2.63
2018-09-30T01:19:35.283Z,2.80
2018-09-30T01:22:03.514Z,3.03
2018-09-30T01:24:31.727Z,2.67
2018-09-30T01:26:59.939Z,2.80
2018-09-30T01:29:28.212Z,2.90
2018-09-30T01:31:56.363Z,2.97
2018-09-30T01:34:24.762Z,2.90
2018-09-30T01:36:52.951Z,3.20
2018-09-30T01:39:21.140Z,2.90
2018-09-30T01:41:49.318Z,3.07
2018-09-30T01:44:17.500Z,2.73
2018-09-30T01:46:45.706Z,2.90
2018-09-30T01:49:13.885Z,2.63
2018-09-30T01:51:42.104Z,3.10
2018-09-30T01:54:10.276Z,2.70
2018-09-30T01:56:38.540Z,2.80
2018-09-30T01:59:06.779Z,3.00
2018-09-30T02:01:34.976Z,2.50
2018-09-30T02:04:03.174Z,2.90
2018-09-30T02:06:31.383Z,2.63
2018-09-30T02:08:59.592Z,2.63
2018-09-30T02:11:27.828Z,2.70
2018-09-30T02:13:56.078Z,2.40
2018-09-30T02:16:24.651Z,2.47
2018-09-30T02:18:52.837Z,2.40
2018-09-30T02:21:20.999Z,2.87
2018-09-30T02:23:49.190Z,2.33
2018-09-30T02:26:17.359Z,2.50
2018-09-30T02:28:45.536Z,2.23
2018-09-30T02:31:13.882Z,2.50
2018-09-30T02:33:42.074Z,2.20
2018-09-30T02:36:10.278Z,2.43
2018-09-30T02:38:38.493Z,2.60
2018-09-30T02:41:06.687Z,2.37
2018-09-30T02:43:34.905Z,2.60
2018-09-30T02:46:03.110Z,2.33
2018-09-30T02:48:31.403Z,2.30
2018-09-30T02:50:59.868Z,2.30
2018-09-30T02:53:32.219Z,2.37
2018-09-30T02:56:00.379Z,2.63
2018-09-30T02:58:28.572Z,2.57
2018-09-30T03:00:56.758Z,2.57
2018-09-30T03:03:24.925Z,2.23
2018-09-30T03:05:53.087Z,2.30
2018-09-30T03:08:26.523Z,2.53
2018-09-30T03:10:54.751Z,2.40
2018-09-30T03:13:23.058Z,2.57
2018-09-30T03:15:51.247Z,2.80
2018-09-30T03:18:19.475Z,2.43
2018-09-30T03:20:47.651Z,3.27
2018-09-30T03:23:15.813Z,2.87
2018-09-30T03:25:43.978Z,3.00
2018-09-30T03:28:12.256Z,3.20
2018-09-30T03:30:40.459Z,3.67
2018-09-30T03:33:08.615Z,4.23
2018-09-30T03:35:36.775Z,4.10
2018-09-30T03:38:04.994Z,4.87
2018-09-30T03:40:33.202Z,4.63
2018-09-30T03:43:01.375Z,4.23
2018-09-30T03:45:29.566Z,4.33
2018-09-30T03:47:57.783Z,4.20
2018-09-30T03:50:25.940Z,4.53
2018-09-30T03:52:54.136Z,4.43
2018-09-30T03:55:22.334Z,4.87
2018-09-30T03:57:50.545Z,4.23
2018-09-30T04:00:19.168Z,4.80
2018-09-30T04:02:47.346Z,3.80
2018-09-30T04:05:15.603Z,4.00
2018-09-30T04:07:43.775Z,3.60
2018-09-30T04:10:12.046Z,3.60
2018-09-30T04:12:40.123Z,3.63
2018-09-30T04:15:08.363Z,4.00
2018-09-30T04:17:36.524Z,4.00
2018-09-30T04:20:04.723Z,4.30
2018-09-30T04:22:32.887Z,3.90
2018-09-30T04:25:01.067Z,3.80
2018-09-30T04:27:29.263Z,4.10
2018-09-30T04:29:57.452Z,3.80
2018-09-30T04:32:25.635Z,3.40
2018-09-30T04:34:53.806Z,3.30
2018-09-30T04:37:21.982Z,4.77
2018-09-30T04:39:50.217Z,4.60
2018-09-30T04:42:19.021Z,4.77
2018-09-30T04:44:47.299Z,5.10
2018-09-30T04:47:15.471Z,5.40
2018-09-30T04:49:43.665Z,5.60
2018-09-30T04:52:11.835Z,5.73
2018-09-30T04:54:40.647Z,4.63
2018-09-30T04:57:08.847Z,5.40
2018-09-30T04:59:37.051Z,5.37
2018-09-30T05:02:05.243Z,5.20
2018-09-30T05:04:34.032Z,4.80
2018-09-30T05:07:02.265Z,4.87
2018-09-30T05:09:30.519Z,4.40
2018-09-30T05:11:58.700Z,5.10
2018-09-30T05:14:26.846Z,4.90
2018-09-30T05:16:55.218Z,4.50
2018-09-30T05:19:23.410Z,5.00
2018-09-30T05:21:51.629Z,4.70
2018-09-30T05:24:19.782Z,3.93
2018-09-30T05:26:47.972Z,4.77
2018-09-30T05:29:16.130Z,3.57
2018-09-30T05:31:44.364Z,3.80
2018-09-30T05:34:12.604Z,4.03
2018-09-30T05:36:40.796Z,3.50
2018-09-30T05:39:10.018Z,3.07
2018-09-30T05:41:38.815Z,3.10
2018-09-30T05:44:07.674Z,2.90
2018-09-30T05:46:35.859Z,2.90
2018-09-30T05:49:04.200Z,3.17
2018-09-30T05:51:32.547Z,2.97
2018-09-30T05:54:00.715Z,3.43
2018-09-30T05:56:28.994Z,3.83
2018-09-30T05:58:57.189Z,3.43
2018-09-30T06:01:25.478Z,3.40
2018-09-30T06:03:53.862Z,3.50
2018-09-30T06:06:22.157Z,3.33
2018-09-30T06:08:50.382Z,2.90
2018-09-30T06:11:18.588Z,2.87
2018-09-30T06:13:47.161Z,2.80
2018-09-30T06:16:15.240Z,2.97
2018-09-30T06:18:43.438Z,2.80
2018-09-30T06:21:11.619Z,2.87
2018-09-30T06:23:39.836Z,3.20
2018-09-30T06:26:07.978Z,3.07
2018-09-30T06:28:36.208Z,2.57
2018-09-30T06:31:04.396Z,3.20
2018-09-30T06:33:33.443Z,2.93
2018-09-30T06:36:01.640Z,2.63
2018-09-30T06:38:29.839Z,3.47
2018-09-30T06:40:58.065Z,3.57
2018-09-30T06:43:26.308Z,3.83
2018-09-30T06:45:54.493Z,3.50
2018-09-30T06:48:22.779Z,3.23
2018-09-30T06:50:51.307Z,2.60
2018-09-30T06:53:19.505Z,3.37
2018-09-30T06:55:47.743Z,2.93
2018-09-30T06:58:15.962Z,2.30
2018-09-30T07:00:44.186Z,3.53
2018-09-30T07:03:13.102Z,3.07
2018-09-30T07:05:41.311Z,3.37
2018-09-30T07:08:09.506Z,3.10
2018-09-30T07:10:37.785Z,2.97
2018-09-30T07:13:06.170Z,3.47
2018-09-30T07:15:34.470Z,3.40
2018-09-30T07:18:02.656Z,3.60
2018-09-30T07:20:30.860Z,3.20
2018-09-30T07:22:59.043Z,3.27
2018-09-30T07:25:27.191Z,3.40
2018-09-30T07:27:55.399Z,2.80
2018-09-30T07:30:23.611Z,3.33
2018-09-30T07:32:51.820Z,3.20
2018-09-30T07:35:20.009Z,3.23
2018-09-30T07:37:48.636Z,3.20
2018-09-30T07:40:17.319Z,2.70
2018-09-30T07:42:45.502Z,2.93
2018-09-30T07:45:14.287Z,2.63
2018-09-30T07:47:43.159Z,2.60
2018-09-30T07:50:11.342Z,2.60
2018-09-30T07:52:39.586Z,2.90
2018-09-30T07:55:07.725Z,3.10
2018-09-30T07:57:35.895Z,3.20
2018-09-30T08:00:05.401Z,3.03
2018-09-30T08:02:33.576Z,2.83
2018-09-30T08:05:01.755Z,3.07
2018-09-30T08:07:30.627Z,3.40
2018-09-30T08:09:59.471Z,3.23
2018-09-30T08:12:28.317Z,3.30
2018-09-30T08:14:56.551Z,3.10
2018-09-30T08:17:24.759Z,3.03
2018-09-30T08:19:52.944Z,3.03
2018-09-30T08:22:21.130Z,3.60
2018-09-30T08:24:49.355Z,2.87
2018-09-30T08:27:17.549Z,3.03
2018-09-30T08:29:46.392Z,3.10
2018-09-30T08:32:14.586Z,2.67
2018-09-30T08:34:42.786Z,3.10
2018-09-30T08:37:11.091Z,3.40
2018-09-30T08:39:39.980Z,3.53
2018-09-30T08:42:08.111Z,3.20
2018-09-30T08:44:36.314Z,3.20
2018-09-30T08:47:04.743Z,3.70
2018-09-30T08:49:32.954Z,3.37
2018-09-30T08:52:01.545Z,3.13
2018-09-30T08:54:29.795Z,3.03
2018-09-30T08:56:58.009Z,3.17
2018-09-30T08:59:26.175Z,3.07
2018-09-30T09:01:54.337Z,2.93
2018-09-30T09:04:22.652Z,3.23
2018-09-30T09:06:51.205Z,3.17
2018-09-30T09:09:19.422Z,3.13
2018-09-30T09:11:47.610Z,2.50
2018-09-30T09:14:15.791Z,2.90
2018-09-30T09:16:44.548Z,2.63
2018-09-30T09:19:12.828Z,3.03
2018-09-30T09:21:41.511Z,2.83
2018-09-30T09:24:09.735Z,3.87
2018-09-30T09:26:37.920Z,3.10
2018-09-30T09:29:06.174Z,2.97
2018-09-30T09:31:34.420Z,2.90
2018-09-30T09:34:02.674Z,3.07
2018-09-30T09:36:33.806Z,3.10
2018-09-30T09:39:02.872Z,3.20
2018-09-30T09:41:31.476Z,3.00
2018-09-30T09:43:59.661Z,3.00
2018-09-30T09:46:27.919Z,3.30
2018-09-30T09:48:56.078Z,3.33
2018-09-30T09:51:24.354Z,3.10
2018-09-30T09:53:52.889Z,3.20
2018-09-30T09:56:21.353Z,3.07
2018-09-30T09:58:49.615Z,2.63
2018-09-30T10:01:17.804Z,3.27
2018-09-30T10:03:46.538Z,3.07
2018-09-30T10:06:14.795Z,3.43
2018-09-30T10:08:43.002Z,2.73
2018-09-30T10:11:11.216Z,3.20
2018-09-30T10:13:39.399Z,3.00
2018-09-30T10:16:07.636Z,3.07
2018-09-30T10:18:42.159Z,3.40
2018-09-30T10:21:10.357Z,3.17
2018-09-30T10:23:39.577Z,3.23
2018-09-30T10:26:07.747Z,3.93
2018-09-30T10:28:35.947Z,4.30
2018-09-30T10:31:04.911Z,3.63
2018-09-30T10:33:33.144Z,3.50
2018-09-30T10:36:01.338Z,3.40
2018-09-30T10:38:29.546Z,3.27
2018-09-30T10:40:57.717Z,3.13
2018-09-30T10:43:25.907Z,3.93
2018-09-30T10:45:54.105Z,3.80
2018-09-30T10:48:22.389Z,4.10
2018-09-30T10:50:50.549Z,3.87
2018-09-30T10:53:19.301Z,3.77
2018-09-30T10:55:47.465Z,3.70
2018-09-30T10:58:16.228Z,3.43
2018-09-30T11:00:44.494Z,3.17
2018-09-30T11:03:12.723Z,2.80
2018-09-30T11:05:40.932Z,4.23
2018-09-30T11:08:09.103Z,4.23
2018-09-30T11:10:37.309Z,3.70
2018-09-30T11:13:05.628Z,3.33
2018-09-30T11:15:33.834Z,3.33
2018-09-30T11:18:02.009Z,3.40
2018-09-30T11:20:30.242Z,3.50
2018-09-30T11:22:58.463Z,3.33
2018-09-30T11:25:26.745Z,3.17
2018-09-30T11:27:55.220Z,2.70
2018-09-30T11:30:30.151Z,2.53
2018-09-30T11:32:58.363Z,2.10
2018-09-30T11:35:26.600Z,2.00
2018-09-30T11:37:54.876Z,1.87
2018-09-30T11:40:23.111Z,2.43
2018-09-30T11:42:51.312Z,1.97
2018-09-30T11:45:19.499Z,1.90
2018-09-30T11:47:47.766Z,2.03
2018-09-30T11:50:16.093Z,2.07
2018-09-30T11:52:44.397Z,1.70
2018-09-30T11:55:12.611Z,2.00
2018-09-30T11:57:40.821Z,2.00
2018-09-30T12:00:09.147Z,2.50
2018-09-30T12:02:37.366Z,2.13
2018-09-30T12:05:05.646Z,1.77
2018-09-30T12:07:33.846Z,2.10
2018-09-30T12:10:02.305Z,2.20
2018-09-30T12:12:30.545Z,2.10
2018-09-30T12:14:59.475Z,1.80
2018-09-30T12:17:27.696Z,2.30
2018-09-30T12:19:55.929Z,2.87
2018-09-30T12:22:24.134Z,2.10
2018-09-30T12:24:52.367Z,2.60
2018-09-30T12:27:20.619Z,2.57
2018-09-30T12:29:48.836Z,3.13
2018-09-30T12:32:17.001Z,2.83
2018-09-30T12:34:45.355Z,2.90
2018-09-30T12:37:13.618Z,2.70
2018-09-30T12:39:41.841Z,2.83
2018-09-30T12:42:10.022Z,3.03
2018-09-30T12:44:38.219Z,3.37
2018-09-30T12:47:06.424Z,2.87
2018-09-30T12:49:34.802Z,3.17
2018-09-30T12:52:02.984Z,3.20
2018-09-30T12:54:31.219Z,3.17
2018-09-30T12:56:59.431Z,3.13
2018-09-30T12:59:27.635Z,2.90
2018-09-30T13:01:55.914Z,3.00
2018-09-30T13:04:24.163Z,3.20
2018-09-30T13:06:52.378Z,2.90
2018-09-30T13:09:20.588Z,3.53
2018-09-30T13:11:48.847Z,2.70
2018-09-30T13:14:17.100Z,2.93
2018-09-30T13:16:45.307Z,3.17
2018-09-30T13:19:13.498Z,2.90
2018-09-30T13:21:41.730Z,2.90
2018-09-30T13:24:09.997Z,2.53
2018-09-30T13:26:38.230Z,2.30
2018-09-30T13:29:06.562Z,2.77
2018-09-30T13:31:34.826Z,2.80
2018-09-30T13:34:03.031Z,2.70
2018-09-30T13:36:31.255Z,3.10
2018-09-30T13:38:59.455Z,3.00
2018-09-30T13:41:27.667Z,2.70
2018-09-30T13:43:55.859Z,2.17
2018-09-30T13:46:24.036Z,3.30
2018-09-30T13:48:52.288Z,2.73
2018-09-30T13:51:20.661Z,2.33
2018-09-30T13:53:48.808Z,1.90
2018-09-30T13:56:17.039Z,2.43
2018-09-30T13:58:45.227Z,2.93
2018-09-30T14:01:13.649Z,2.20
2018-09-30T14:03:41.876Z,2.47
2018-09-30T14:06:10.155Z,2.33
2018-09-30T14:08:38.338Z,2.10
2018-09-30T14:11:06.563Z,2.47
2018-09-30T14:13:34.785Z,2.27
2018-09-30T14:16:03.019Z,2.00
2018-09-30T14:18:31.215Z,2.33
2018-09-30T14:20:59.403Z,2.60
2018-09-30T14:23:27.570Z,2.20
2018-09-30T14:25:55.750Z,2.17
2018-09-30T14:28:24.016Z,1.87
2018-09-30T14:30:52.249Z,1.80
2018-09-30T14:33:20.423Z,2.63
2018-09-30T14:35:48.653Z,2.30
2018-09-30T14:38:16.887Z,2.73
2018-09-30T14:40:45.188Z,2.40
2018-09-30T14:43:16.365Z,2.83
2018-09-30T14:45:44.595Z,2.70
2018-09-30T14:48:12.885Z,2.23
2018-09-30T14:50:41.039Z,3.10
2018-09-30T14:53:09.241Z,2.60
2018-09-30T14:55:37.460Z,2.43
2018-09-30T14:58:05.701Z,2.40
2018-09-30T15:00:33.883Z,2.57
2018-09-30T15:03:02.142Z,2.13
2018-09-30T15:05:30.331Z,2.50
2018-09-30T15:07:58.559Z,2.40
2018-09-30T15:10:26.776Z,2.40
2018-09-30T15:12:55.037Z,2.03
2018-09-30T15:15:23.497Z,2.40
2018-09-30T15:17:51.715Z,2.23
2018-09-30T15:20:19.954Z,2.37
2018-09-30T15:22:48.239Z,2.60
2018-09-30T15:25:16.454Z,1.97
2018-09-30T15:27:44.715Z,1.80
2018-09-30T15:30:12.990Z,1.80
2018-09-30T15:32:41.380Z,1.50
2018-09-30T15:35:09.571Z,1.37
2018-09-30T15:37:37.758Z,1.70
2018-09-30T15:40:06.403Z,1.90
2018-09-30T15:42:34.584Z,2.67
2018-09-30T15:45:02.937Z,2.17
2018-09-30T15:47:31.210Z,11.67
2018-09-30T15:49:59.420Z,3.27
2018-09-30T15:52:27.703Z,1.90
2018-09-30T15:54:56.073Z,1.80
2018-09-30T15:57:24.428Z,1.63
2018-09-30T15:59:52.699Z,1.80
2018-09-30T16:02:21.298Z,1.70
2018-09-30T16:04:49.512Z,2.57
2018-09-30T16:07:17.676Z,2.50
2018-09-30T16:09:45.865Z,2.10
2018-09-30T16:12:14.035Z,1.63
2018-09-30T16:14:42.995Z,2.00
2018-09-30T16:17:11.196Z,1.93
2018-09-30T16:19:39.378Z,1.80
2018-09-30T16:22:07.584Z,2.43
2018-09-30T16:24:35.963Z,1.70
2018-09-30T16:27:04.135Z,2.23
2018-09-30T16:29:32.347Z,1.67
2018-09-30T16:32:00.591Z,2.20
2018-09-30T16:34:28.818Z,1.93
2018-09-30T16:36:57.020Z,2.17
2018-09-30T16:39:25.259Z,2.13
2018-09-30T16:41:53.455Z,1.70
2018-09-30T16:44:21.913Z,1.73
2018-09-30T16:46:50.217Z,2.27
2018-09-30T16:49:18.415Z,1.93
2018-09-30T16:51:46.635Z,2.00
2018-09-30T16:54:14.832Z,1.87
2018-09-30T16:56:43.032Z,1.50
2018-09-30T16:59:11.231Z,1.40
2018-09-30T17:01:39.429Z,1.57
2018-09-30T17:04:07.644Z,2.03
2018-09-30T17:06:35.913Z,2.00
2018-09-30T17:09:05.294Z,2.13
2018-09-30T17:11:33.485Z,1.40
2018-09-30T17:14:01.666Z,2.20
2018-09-30T17:16:29.934Z,1.93
2018-09-30T17:18:58.192Z,2.07
2018-09-30T17:21:26.403Z,2.40
2018-09-30T17:23:54.598Z,2.20
2018-09-30T17:26:22.838Z,2.47
2018-09-30T17:28:51.063Z,2.37
2018-09-30T17:31:19.369Z,2.30
2018-09-30T17:33:47.532Z,2.03
2018-09-30T17:36:15.731Z,2.33
2018-09-30T17:38:43.911Z,2.27
2018-09-30T17:41:12.116Z,2.80
2018-09-30T17:43:40.267Z,2.40
2018-09-30T17:46:08.923Z,2.47
2018-09-30T17:48:37.080Z,2.30
2018-09-30T17:51:05.287Z,2.20
2018-09-30T17:53:33.514Z,2.00
2018-09-30T17:56:01.889Z,2.83
2018-09-30T17:58:30.110Z,2.87
2018-09-30T18:00:58.295Z,2.90
2018-09-30T18:03:26.485Z,2.70
2018-09-30T18:05:54.742Z,2.57
2018-09-30T18:08:22.966Z,3.40
2018-09-30T18:10:51.219Z,3.23
2018-09-30T18:13:19.343Z,2.67
2018-09-30T18:15:47.543Z,3.17
2018-09-30T18:18:15.726Z,3.50
2018-09-30T18:20:43.969Z,3.20
2018-09-30T18:23:12.150Z,3.77
2018-09-30T18:25:40.343Z,4.20
2018-09-30T18:28:09.018Z,4.20
2018-09-30T18:30:37.298Z,3.67
2018-09-30T18:33:05.496Z,3.63
2018-09-30T18:35:33.655Z,3.87
2018-09-30T18:38:01.956Z,4.00
2018-09-30T18:40:42.079Z,4.03
2018-09-30T18:43:10.765Z,3.40
2018-09-30T18:45:38.970Z,4.07
2018-09-30T18:48:07.718Z,3.90
2018-09-30T18:50:36.011Z,3.47
2018-09-30T18:53:04.308Z,3.40
2018-09-30T18:55:32.519Z,4.00
2018-09-30T18:58:01.155Z,3.50
2018-09-30T19:00:29.523Z,3.23
2018-09-30T19:02:57.691Z,3.23
2018-09-30T19:05:25.881Z,3.27
2018-09-30T19:07:54.107Z,4.10
2018-09-30T19:10:22.361Z,3.90
2018-09-30T19:12:50.522Z,4.37
2018-09-30T19:15:18.759Z,4.00
2018-09-30T19:17:47.139Z,4.73
2018-09-30T19:20:15.393Z,4.43
2018-09-30T19:22:43.649Z,4.17
2018-09-30T19:25:11.987Z,4.03
2018-09-30T19:27:40.123Z,4.20
2018-09-30T19:30:08.395Z,4.90
2018-09-30T19:32:36.521Z,4.43
2018-09-30T19:35:04.731Z,4.27
2018-09-30T19:37:32.915Z,4.27
2018-09-30T19:40:01.096Z,4.87
2018-09-30T19:42:29.314Z,3.97
2018-09-30T19:44:57.531Z,4.33
2018-09-30T19:47:25.747Z,4.20
2018-09-30T19:49:53.925Z,4.23
2018-09-30T19:52:22.784Z,3.93
2018-09-30T19:54:50.960Z,4.73
2018-09-30T19:57:19.151Z,4.50
2018-09-30T19:59:47.420Z,4.00
2018-09-30T20:02:15.574Z,4.20
2018-09-30T20:04:43.755Z,4.07
2018-09-30T20:07:11.928Z,4.27
2018-09-30T20:09:40.265Z,4.60
2018-09-30T20:12:08.643Z,4.77
2018-09-30T20:14:36.835Z,4.10
2018-09-30T20:17:05.880Z,4.37
2018-09-30T20:19:34.376Z,4.80
2018-09-30T20:22:02.806Z,5.07
2018-09-30T20:24:31.214Z,6.47
2018-09-30T20:26:59.614Z,5.27
2018-09-30T20:29:27.990Z,5.00
2018-09-30T20:31:56.290Z,5.30
2018-09-30T20:34:24.572Z,4.70
2018-09-30T20:36:52.944Z,4.23
2018-09-30T20:39:21.225Z,5.03
2018-09-30T20:41:49.521Z,5.33
2018-09-30T20:44:17.767Z,4.83
2018-09-30T20:46:46.602Z,5.00
2018-09-30T20:49:14.834Z,4.93
2018-09-30T20:51:43.089Z,5.20
2018-09-30T20:54:11.986Z,4.93
2018-09-30T20:56:40.304Z,6.13
2018-09-30T20:59:08.562Z,5.43
2018-09-30T21:01:36.837Z,5.67
2018-09-30T21:04:05.141Z,5.63
2018-09-30T21:06:37.583Z,4.97
2018-09-30T21:09:09.138Z,5.97
2018-09-30T21:11:37.409Z,5.17
2018-09-30T21:14:05.858Z,5.87
2018-09-30T21:16:34.200Z,5.60
2018-09-30T21:19:02.559Z,5.30
2018-09-30T21:21:30.893Z,5.33
2018-09-30T21:23:59.215Z,5.00
2018-09-30T21:26:27.567Z,4.97
2018-09-30T21:28:55.836Z,5.83
2018-09-30T21:31:24.172Z,5.70
2018-09-30T21:33:52.517Z,5.50
2018-09-30T21:36:20.794Z,5.77
2018-09-30T21:38:49.074Z,5.60
2018-09-30T21:41:17.394Z,5.63
2018-09-30T21:43:45.642Z,5.30
2018-09-30T21:46:13.885Z,5.03
2018-09-30T21:48:42.217Z,5.63
2018-09-30T21:51:10.470Z,5.40
2018-09-30T21:53:38.832Z,6.17
2018-09-30T21:56:07.212Z,5.57
2018-09-30T21:58:35.474Z,6.03
2018-09-30T22:01:04.867Z,5.67
2018-09-30T22:03:33.152Z,6.30
2018-09-30T22:06:01.667Z,6.03
2018-09-30T22:08:29.958Z,6.37
2018-09-30T22:10:58.252Z,6.13
2018-09-30T22:13:26.558Z,5.70
2018-09-30T22:15:54.868Z,6.70
2018-09-30T22:18:23.157Z,5.70
2018-09-30T22:20:51.470Z,6.00
2018-09-30T22:23:19.773Z,5.83
2018-09-30T22:25:48.080Z,4.97
2018-09-30T22:28:16.370Z,5.50
2018-09-30T22:30:44.639Z,5.80
2018-09-30T22:33:12.925Z,5.63
2018-09-30T22:35:41.239Z,5.27
2018-09-30T22:38:09.590Z,5.77
2018-09-30T22:40:37.910Z,5.97
2018-09-30T22:43:06.256Z,5.53
2018-09-30T22:45:34.586Z,4.53
2018-09-30T22:48:02.885Z,5.33
2018-09-30T22:50:31.174Z,5.57
2018-09-30T22:52:59.525Z,4.70
2018-09-30T22:55:27.846Z,5.50
2018-09-30T22:57:56.160Z,5.20
2018-09-30T23:00:24.459Z,5.03
2018-09-30T23:02:52.733Z,4.83
2018-09-30T23:05:21.021Z,5.00
2018-09-30T23:07:49.309Z,4.87
2018-09-30T23:10:17.565Z,5.07
2018-09-30T23:12:45.854Z,4.17
2018-09-30T23:15:14.229Z,4.93
2018-09-30T23:17:42.519Z,4.30
2018-09-30T23:20:15.094Z,5.40
2018-09-30T23:22:43.444Z,5.50
2018-09-30T23:25:11.801Z,4.80
2018-09-30T23:27:40.166Z,5.83
2018-09-30T23:30:08.507Z,7.10
2018-09-30T23:32:37.076Z,10.17
2018-09-30T23:35:05.406Z,10.60
2018-09-30T23:37:33.763Z,11.40
2018-09-30T23:40:02.139Z,11.60
2018-09-30T23:42:30.481Z,12.30
2018-09-30T23:44:58.964Z,11.97
2018-09-30T23:47:27.337Z,11.53
2018-09-30T23:49:55.622Z,10.83
2018-09-30T23:52:23.897Z,10.93
2018-09-30T23:54:52.485Z,11.73
2018-09-30T23:57:20.825Z,10.23
2018-09-30T23:59:49.507Z,8.27
